Time;durP1;ratioP1;P1;durP2;ratioP2;P2;SDS_P1;SDS_P2;PMS_P1;PMS_P2;Temp;Humidity;BMP_temperature;BMP_pressure;BME280_temperature;BME280_humidity;BME280_pressure;Samples;Min_cycle;Max_cycle;Signal;HPM_P1;HPM_P2
2023/09/08 00:01:44;;;;;;;6.35;5.57;;;;;;;21.44;61.06;101954.66;7396009;19;19943;-73
2023/09/08 00:04:14;;;;;;;7.65;5.90;;;;;;;21.37;61.07;101956.59;7399510;19;19922;-72
2023/09/08 00:06:43;;;;;;;8.52;5.95;;;;;;;21.32;61.51;101957.25;7396523;19;19914;-73
2023/09/08 00:09:11;;;;;;;6.63;5.55;;;;;;;21.31;61.53;101952.84;7397557;19;20282;-73
2023/09/08 00:11:40;;;;;;;6.43;5.57;;;;;;;21.28;61.43;101954.13;7388849;19;19958;-73
2023/09/08 00:14:08;;;;;;;11.82;6.30;;;;;;;21.26;61.50;101955.41;7393293;19;19955;-72
2023/09/08 00:16:38;;;;;;;7.28;5.95;;;;;;;21.24;61.74;101946.56;7397908;19;20289;-73
2023/09/08 00:19:10;;;;;;;6.97;5.50;;;;;;;21.18;61.80;101958.44;7395264;19;20264;-73
2023/09/08 00:21:39;;;;;;;11.65;5.75;;;;;;;21.14;61.79;101954.44;7392134;19;19946;-73
2023/09/08 00:24:09;;;;;;;15.05;5.97;;;;;;;21.09;61.91;101960.56;7396550;19;19927;-73
2023/09/08 00:26:37;;;;;;;7.22;5.63;;;;;;;21.05;61.56;101953.84;7393396;19;19922;-73
2023/09/08 00:29:06;;;;;;;7.85;5.43;;;;;;;21.01;62.25;101954.50;7394157;19;20308;-73
2023/09/08 00:31:35;;;;;;;8.98;6.13;;;;;;;20.98;61.91;101958.50;7392978;19;19922;-73
2023/09/08 00:34:04;;;;;;;8.48;5.78;;;;;;;20.94;62.26;101951.78;7396640;19;20351;-73
2023/09/08 00:36:35;;;;;;;7.63;5.10;;;;;;;20.91;62.07;101956.84;7395250;19;19914;-73
2023/09/08 00:39:04;;;;;;;10.02;5.63;;;;;;;20.83;62.31;101961.53;7395208;19;19930;-73
2023/09/08 00:41:33;;;;;;;7.20;5.38;;;;;;;20.78;62.61;101972.31;7394537;19;19925;-74
2023/09/08 00:44:21;;;;;;;8.02;5.60;;;;;;;20.75;62.54;101959.03;7392642;19;20262;-73
2023/09/08 00:46:50;;;;;;;6.40;5.55;;;;;;;20.72;63.20;101954.00;7392859;19;19950;-73
2023/09/08 00:49:19;;;;;;;6.30;5.57;;;;;;;20.69;63.27;101950.84;7396056;19;19946;-73
2023/09/08 00:51:50;;;;;;;9.25;5.95;;;;;;;20.67;62.99;101959.28;7388767;19;19937;-73
2023/09/08 00:54:39;;;;;;;8.27;5.30;;;;;;;20.60;62.86;101958.47;7390156;19;19989;-73
2023/09/08 00:57:27;;;;;;;;;;;;;;;20.21;64.77;101962.13;7394921;19;19915;-73
2023/09/08 00:59:57;;;;;;;6.65;5.75;;;;;;;20.44;63.23;101950.75;7396021;19;19929;-73
2023/09/08 01:02:25;;;;;;;7.22;5.20;;;;;;;20.44;63.10;101948.00;7392566;19;19918;-73
2023/09/08 01:04:54;;;;;;;9.85;5.55;;;;;;;20.46;63.15;101951.34;7392976;19;19965;-73
2023/09/08 01:07:26;;;;;;;12.07;5.63;;;;;;;20.50;63.37;101951.75;7392512;19;19923;-73
2023/09/08 01:10:15;;;;;;;8.45;5.70;;;;;;;20.50;62.97;101946.28;7391251;19;19922;-74
2023/09/08 01:12:44;;;;;;;7.90;5.18;;;;;;;20.49;62.72;101948.19;7393825;19;19938;-73
2023/09/08 01:15:13;;;;;;;8.88;6.50;;;;;;;20.50;62.79;101949.84;7394420;19;19930;-73
2023/09/08 01:17:41;;;;;;;11.35;6.53;;;;;;;20.50;63.04;101949.03;7393912;19;19946;-73
2023/09/08 01:20:21;;;;;;;6.47;5.22;;;;;;;20.48;62.88;101940.19;7394354;19;19922;-73
2023/09/08 01:23:07;;;;;;;10.50;5.80;;;;;;;20.38;63.34;101946.97;7392225;19;20260;-74
2023/09/08 01:25:43;;;;;;;9.75;5.32;;;;;;;20.44;62.89;101945.28;7394586;19;20368;-73
2023/09/08 01:28:15;;;;;;;8.57;5.45;;;;;;;20.40;63.17;101943.19;7394647;19;19923;-73
2023/09/08 01:30:44;;;;;;;7.95;5.43;;;;;;;20.33;63.30;101943.19;7392057;19;19922;-73
2023/09/08 01:33:14;;;;;;;7.32;5.40;;;;;;;20.27;63.79;101944.03;7392880;19;20352;-73
2023/09/08 01:36:03;;;;;;;7.55;4.95;;;;;;;20.22;63.88;101941.94;7391514;19;20004;-73
2023/09/08 01:38:32;;;;;;;8.85;6.10;;;;;;;20.21;63.90;101940.25;7390917;19;19930;-73
2023/09/08 01:41:04;;;;;;;7.45;5.63;;;;;;;20.10;64.46;101940.91;7390442;19;20313;-73
2023/09/08 01:43:32;;;;;;;7.70;5.75;;;;;;;20.03;64.14;101939.22;7391370;19;19919;-73
2023/09/08 01:46:01;;;;;;;7.20;5.50;;;;;;;19.96;64.73;101944.72;7395227;19;19937;-73
2023/09/08 01:48:33;;;;;;;7.03;6.05;;;;;;;19.90;64.76;101942.81;7393550;19;20595;-73
2023/09/08 01:51:01;;;;;;;8.20;6.03;;;;;;;19.83;64.80;101937.38;7388740;19;19918;-73
2023/09/08 01:53:30;;;;;;;8.75;5.57;;;;;;;19.79;65.28;101935.28;7390938;19;19922;-75
2023/09/08 01:55:58;;;;;;;9.57;6.38;;;;;;;19.74;65.26;101938.63;7392410;19;19946;-72
2023/09/08 01:58:50;;;;;;;8.05;5.78;;;;;;;19.71;65.42;101933.59;7393040;19;20344;-73
2023/09/08 02:01:18;;;;;;;9.93;6.70;;;;;;;19.69;65.73;101938.44;7396685;19;19950;-73
2023/09/08 02:03:47;;;;;;;8.00;6.55;;;;;;;19.64;65.68;101938.22;7395924;19;20289;-73
2023/09/08 02:06:15;;;;;;;10.20;6.22;;;;;;;19.61;65.82;101937.81;7400074;19;19922;-73
2023/09/08 02:08:44;;;;;;;7.88;5.78;;;;;;;19.58;66.10;101936.34;7399609;19;19926;-73
2023/09/08 02:11:13;;;;;;;7.35;5.57;;;;;;;19.55;66.25;101939.47;7398584;19;19938;-73
2023/09/08 02:13:41;;;;;;;7.50;5.88;;;;;;;19.52;65.93;101928.97;7397379;19;19922;-73
2023/09/08 02:16:15;;;;;;;12.40;6.88;;;;;;;19.47;66.08;101923.28;7400196;19;19930;-73
2023/09/08 02:18:44;;;;;;;9.13;6.32;;;;;;;19.48;66.20;101931.28;7400960;19;19936;-73
2023/09/08 02:21:13;;;;;;;8.23;6.28;;;;;;;19.45;66.36;101919.94;7399526;19;19944;-73
2023/09/08 02:23:41;;;;;;;8.45;6.57;;;;;;;19.45;65.95;101920.78;7398663;19;20328;-73
2023/09/08 02:26:10;;;;;;;9.40;6.07;;;;;;;19.45;66.23;101920.78;7397439;19;19926;-74
2023/09/08 02:28:39;;;;;;;9.20;6.40;;;;;;;19.44;66.23;101926.44;7399444;19;20418;-73
2023/09/08 02:31:07;;;;;;;7.93;6.80;;;;;;;19.45;66.12;101928.13;7394363;19;20392;-73
2023/09/08 02:33:39;;;;;;;10.93;6.00;;;;;;;19.42;66.07;101931.22;7397362;19;19934;-73
2023/09/08 02:36:09;;;;;;;11.90;7.28;;;;;;;19.41;66.29;101932.31;7394896;19;19947;-73
2023/09/08 02:38:37;;;;;;;8.93;6.30;;;;;;;19.35;66.47;101930.41;7397392;19;19954;-73
2023/09/08 02:41:06;;;;;;;8.55;6.53;;;;;;;19.31;66.73;101932.72;7398150;19;20363;-73
2023/09/08 02:43:35;;;;;;;7.88;6.18;;;;;;;19.28;66.78;101929.56;7396607;19;20591;-74
2023/09/08 02:46:03;;;;;;;8.93;6.43;;;;;;;19.25;67.11;101927.22;7395699;19;19956;-73
2023/09/08 02:48:32;;;;;;;9.70;5.90;;;;;;;19.24;67.10;101920.09;7397434;19;19946;-73
2023/09/08 02:51:03;;;;;;;10.27;6.40;;;;;;;19.20;67.29;101924.31;7398240;19;20277;-73
2023/09/08 02:53:32;;;;;;;8.00;6.00;;;;;;;19.09;67.39;101922.16;7397760;19;20241;-73
2023/09/08 02:56:03;;;;;;;8.68;5.95;;;;;;;18.99;67.69;101931.59;7399893;19;19950;-73
2023/09/08 02:58:33;;;;;;;8.88;6.85;;;;;;;18.92;67.88;101932.63;7395205;19;20253;-73
2023/09/08 03:01:13;;;;;;;7.10;6.10;;;;;;;18.84;68.41;101927.38;7394283;19;19919;-73
2023/09/08 03:03:42;;;;;;;10.52;7.05;;;;;;;18.89;68.13;101928.44;7396708;19;19931;-73
2023/09/08 03:06:14;;;;;;;9.98;6.38;;;;;;;18.84;68.38;101921.91;7398177;19;19923;-73
2023/09/08 03:09:02;;;;;;;9.15;6.40;;;;;;;18.82;68.24;101921.25;7389953;19;20320;-74
2023/09/08 03:11:31;;;;;;;11.98;6.05;;;;;;;18.80;67.97;101917.91;7392304;19;19955;-73
2023/09/08 03:13:59;;;;;;;8.13;7.15;;;;;;;18.74;68.23;101915.97;7394569;19;19942;-73
2023/09/08 03:16:28;;;;;;;10.30;7.03;;;;;;;18.70;68.37;101918.28;7397877;19;19927;-73
2023/09/08 03:18:58;;;;;;;11.73;7.20;;;;;;;18.63;68.81;101916.59;7395738;19;19926;-74
2023/09/08 03:21:29;;;;;;;7.70;6.47;;;;;;;18.59;69.11;101921.63;7398471;19;20342;-73
2023/09/08 03:23:58;;;;;;;8.50;6.53;;;;;;;18.52;69.50;101918.84;7399076;19;19922;-74
2023/09/08 03:26:27;;;;;;;9.30;6.40;;;;;;;18.50;69.49;101912.72;7396758;19;20412;-74
2023/09/08 03:29:15;;;;;;;11.75;7.03;;;;;;;18.46;69.45;101916.06;7393011;19;19936;-73
2023/09/08 03:31:44;;;;;;;9.98;7.78;;;;;;;18.43;69.24;101913.72;7397761;19;19918;-73
2023/09/08 03:34:13;;;;;;;8.45;6.70;;;;;;;18.37;69.46;101914.56;7397406;19;19945;-73
2023/09/08 03:36:45;;;;;;;11.25;7.15;;;;;;;18.34;69.90;101901.31;7397162;19;19925;-73
2023/09/08 03:39:13;;;;;;;11.45;7.82;;;;;;;18.32;69.90;101896.06;7395115;19;20288;-73
2023/09/08 03:41:42;;;;;;;8.20;6.45;;;;;;;18.31;69.50;101890.81;7394929;19;20402;-73
2023/09/08 03:44:10;;;;;;;8.60;6.22;;;;;;;18.30;69.59;101894.56;7397626;19;19946;-73
2023/09/08 03:46:39;;;;;;;9.98;7.32;;;;;;;18.31;70.18;101888.06;7397190;19;19926;-73
2023/09/08 03:49:08;;;;;;;8.43;6.68;;;;;;;18.33;70.03;101896.91;7396135;19;19943;-73
2023/09/08 03:51:36;;;;;;;10.02;7.30;;;;;;;18.34;69.89;101893.13;7396709;19;20471;-74
2023/09/08 03:54:08;;;;;;;9.90;7.03;;;;;;;18.35;69.73;101895.66;7393578;19;19954;-73
2023/09/08 03:56:36;;;;;;;;;;;;;;;18.08;71.16;101891.94;7396092;19;19923;-73
2023/09/08 03:59:05;;;;;;;9.38;6.28;;;;;;;18.29;69.55;101887.44;7395433;19;20593;-72
2023/09/08 04:01:34;;;;;;;11.98;7.63;;;;;;;18.32;69.23;101893.34;7393420;19;19950;-73
2023/09/08 04:04:02;;;;;;;10.65;6.93;;;;;;;18.28;69.41;101894.78;7391521;19;19926;-73
2023/09/08 04:06:31;;;;;;;10.45;7.53;;;;;;;18.25;69.81;101897.09;7392459;19;19947;-73
2023/09/08 04:08:59;;;;;;;9.73;6.72;;;;;;;18.19;70.32;101886.97;7382490;19;20019;-73
2023/09/08 04:11:31;;;;;;;10.93;7.15;;;;;;;18.19;69.94;101898.72;7394603;19;19942;-73
2023/09/08 04:14:19;;;;;;;9.88;7.05;;;;;;;18.17;69.80;101894.50;7394721;19;19990;-73
2023/09/08 04:16:48;;;;;;;8.63;7.72;;;;;;;18.16;70.29;101898.28;7397556;19;19922;-73
2023/09/08 04:19:16;;;;;;;11.77;6.97;;;;;;;18.13;70.28;101894.91;7395240;19;19946;-73
2023/09/08 04:21:45;;;;;;;8.80;6.40;;;;;;;18.08;70.31;101894.66;7396978;19;19960;-73
2023/09/08 04:24:14;;;;;;;11.48;7.00;;;;;;;18.02;70.66;101898.22;7393698;19;19930;-73
2023/09/08 04:26:45;;;;;;;9.10;7.43;;;;;;;17.96;70.90;101892.72;7398020;19;19946;-73
2023/09/08 04:29:35;;;;;;;10.68;7.30;;;;;;;17.91;70.86;101897.91;7391374;19;19998;-73
2023/09/08 04:32:08;;;;;;;8.73;6.78;;;;;;;17.85;71.10;101891.41;7388573;19;19926;-73
2023/09/08 04:34:57;;;;;;;;;;;;;;;17.55;72.75;101896.19;7397185;19;19926;-73
2023/09/08 04:37:27;;;;;;;10.63;6.88;;;;;;;17.76;71.04;101892.59;7391533;19;19918;-73
2023/09/08 04:39:57;;;;;;;8.80;7.30;;;;;;;17.78;71.09;101895.94;7388745;19;19923;-73
2023/09/08 04:42:29;;;;;;;10.18;7.53;;;;;;;17.76;71.40;101891.75;7379597;19;19951;-75
2023/09/08 04:45:17;;;;;;;10.20;7.68;;;;;;;17.74;71.10;101888.38;7387001;19;19960;-73
2023/09/08 04:47:46;;;;;;;10.90;7.28;;;;;;;17.70;71.68;101898.84;7389418;19;19919;-73
2023/09/08 04:50:15;;;;;;;10.55;7.65;;;;;;;17.67;71.51;101893.78;7379082;19;19934;-73
2023/09/08 04:52:44;;;;;;;9.38;6.70;;;;;;;17.63;71.88;101892.50;7385442;19;19926;-73
2023/09/08 04:55:13;;;;;;;11.43;7.60;;;;;;;17.62;72.04;101899.00;7391707;19;20298;-73
2023/09/08 04:57:44;;;;;;;10.55;7.10;;;;;;;17.62;71.70;101896.25;7391297;19;19925;-73
2023/09/08 05:00:15;;;;;;;10.93;7.30;;;;;;;17.60;71.64;101901.91;7389564;19;19926;-73
2023/09/08 05:02:43;;;;;;;9.73;7.13;;;;;;;17.58;72.24;101894.97;7376719;19;19926;-73
2023/09/08 05:05:12;;;;;;;10.05;7.50;;;;;;;17.53;72.27;101895.53;7383460;19;19943;-73
2023/09/08 05:07:41;;;;;;;9.80;7.13;;;;;;;17.48;72.12;101895.28;7383890;19;19927;-73
2023/09/08 05:10:10;;;;;;;11.52;7.60;;;;;;;17.46;72.64;101900.09;7385728;19;20327;-73
2023/09/08 05:12:38;;;;;;;10.95;7.40;;;;;;;17.44;72.45;101901.31;7386932;19;20631;-73
2023/09/08 05:15:15;;;;;;;8.02;7.10;;;;;;;17.42;72.61;101898.81;7392119;19;19926;-73
2023/09/08 05:17:43;;;;;;;11.63;8.30;;;;;;;17.42;72.47;101896.09;7393361;19;19922;-73
2023/09/08 05:20:12;;;;;;;12.65;7.35;;;;;;;17.40;72.41;101895.44;7388749;19;19951;-73
2023/09/08 05:22:41;;;;;;;10.68;8.20;;;;;;;17.38;72.55;101904.84;7395631;19;19922;-73
2023/09/08 05:25:10;;;;;;;9.52;7.45;;;;;;;17.37;73.20;101894.97;7394869;19;19939;-72
2023/09/08 05:27:39;;;;;;;9.88;7.10;;;;;;;17.37;72.98;101900.44;7393585;19;20345;-73
2023/09/08 05:30:13;;;;;;;9.82;6.88;;;;;;;17.36;73.06;101910.47;7388596;19;20260;-73
2023/09/08 05:32:41;;;;;;;8.30;7.05;;;;;;;17.34;73.18;101906.28;7395517;19;20146;-73
2023/09/08 05:35:11;;;;;;;9.52;7.20;;;;;;;17.33;73.03;101910.88;7394810;19;19926;-72
2023/09/08 05:37:40;;;;;;;12.25;8.38;;;;;;;17.31;73.14;101907.50;7395284;19;20369;-73
2023/09/08 05:40:29;;;;;;;9.25;7.15;;;;;;;17.27;73.44;101908.94;7394512;19;19990;-72
2023/09/08 05:42:57;;;;;;;9.73;7.97;;;;;;;17.28;73.84;101901.59;7397286;19;19926;-72
2023/09/08 05:45:30;;;;;;;12.88;7.53;;;;;;;17.30;73.99;101891.38;7400213;19;20333;-72
2023/09/08 05:47:59;;;;;;;10.95;7.50;;;;;;;17.30;73.85;101905.00;7396773;19;19946;-72
2023/09/08 05:50:28;;;;;;;9.02;7.78;;;;;;;17.31;73.84;101896.59;7399398;19;19915;-72
2023/09/08 05:52:57;;;;;;;12.75;7.60;;;;;;;17.30;74.13;101900.34;7400992;19;19919;-72
2023/09/08 05:55:45;;;;;;;9.55;6.93;;;;;;;17.30;73.86;101903.06;7362672;19;19922;-73
2023/09/08 05:58:14;;;;;;;9.43;7.10;;;;;;;17.35;74.20;101899.78;7374400;19;19922;-72
2023/09/08 06:00:45;;;;;;;11.48;8.07;;;;;;;17.37;74.44;101898.56;7396883;19;20306;-73
2023/09/08 06:03:34;;;;;;;9.93;7.38;;;;;;;17.42;74.53;101901.53;7394734;19;19979;-73
2023/09/08 06:06:03;;;;;;;10.35;7.13;;;;;;;17.48;73.93;101905.31;7397056;19;20364;-72
2023/09/08 06:08:31;;;;;;;8.95;7.68;;;;;;;17.51;74.10;101903.06;7394137;19;20349;-72
2023/09/08 06:11:00;;;;;;;12.35;7.43;;;;;;;17.55;73.87;101906.25;7398637;19;19926;-72
2023/09/08 06:13:29;;;;;;;10.90;8.32;;;;;;;17.59;74.23;101900.25;7393369;19;20425;-72
2023/09/08 06:16:00;;;;;;;11.35;8.25;;;;;;;17.62;74.06;101897.09;7396754;19;19941;-72
2023/09/08 06:18:32;;;;;;;11.00;7.40;;;;;;;17.67;74.32;101902.81;7396006;19;19927;-73
2023/09/08 06:21:01;;;;;;;;;;;;;;;17.50;75.83;101903.25;7402126;19;20395;-73
2023/09/08 06:23:30;;;;;;;9.70;7.20;;;;;;;17.74;74.00;101899.28;7398113;19;20360;-72
2023/09/08 06:26:01;;;;;;;11.60;7.82;;;;;;;17.85;73.46;101905.03;7393296;19;19952;-72
2023/09/08 06:28:29;;;;;;;11.50;7.72;;;;;;;17.94;73.10;101898.38;7396665;19;19929;-72
2023/09/08 06:31:01;;;;;;;11.85;8.23;;;;;;;18.04;73.73;101898.00;7397239;19;20010;-72
2023/09/08 06:33:29;;;;;;;;;;;;;;;17.88;74.55;101893.72;7394887;19;19933;-72
2023/09/08 06:35:59;;;;;;;12.02;7.57;;;;;;;18.12;73.35;101893.22;7392379;19;19914;-72
2023/09/08 06:38:31;;;;;;;13.82;7.78;;;;;;;18.24;73.10;101887.22;7391776;19;19925;-72
2023/09/08 06:41:00;;;;;;;11.90;7.95;;;;;;;18.34;73.07;101895.84;7397970;19;20284;-73
2023/09/08 06:43:30;;;;;;;10.15;7.63;;;;;;;18.43;72.66;101895.47;7397648;19;19919;-72
2023/09/08 06:46:01;;;;;;;10.82;7.13;;;;;;;18.50;72.10;101895.50;7401331;19;20313;-73
2023/09/08 06:48:29;;;;;;;12.63;7.85;;;;;;;18.56;72.38;101895.56;7398785;19;20260;-72
2023/09/08 06:50:58;;;;;;;9.90;7.00;;;;;;;18.62;72.40;101888.44;7395497;19;20360;-72
2023/09/08 06:53:28;;;;;;;12.55;8.93;;;;;;;18.68;72.36;101894.97;7402046;19;19922;-72
2023/09/08 06:55:58;;;;;;;14.30;7.53;;;;;;;18.74;72.46;101894.13;7398181;19;19933;-72
2023/09/08 06:58:26;;;;;;;14.77;8.82;;;;;;;18.78;72.28;101893.53;7396564;19;19918;-72
2023/09/08 07:00:56;;;;;;;9.38;7.97;;;;;;;18.87;71.77;101894.19;7403629;19;19954;-73
2023/09/08 07:03:28;;;;;;;11.32;7.97;;;;;;;18.95;72.46;101897.56;7404124;19;19957;-72
2023/09/08 07:05:57;;;;;;;10.07;7.72;;;;;;;19.00;72.27;101894.22;7398546;19;20015;-72
2023/09/08 07:08:26;;;;;;;11.23;7.43;;;;;;;19.10;72.13;101891.06;7389233;19;20345;-72
2023/09/08 07:10:55;;;;;;;12.00;7.53;;;;;;;19.18;71.70;101893.59;7395746;19;19923;-73
2023/09/08 07:13:25;;;;;;;13.52;8.40;;;;;;;19.24;72.13;101888.13;7392203;19;19926;-72
2023/09/08 07:16:13;;;;;;;12.43;7.85;;;;;;;19.30;72.21;101902.84;7396792;19;20412;-72
2023/09/08 07:18:45;;;;;;;13.27;8.77;;;;;;;19.39;71.80;101896.13;7401080;19;19915;-72
2023/09/08 07:21:14;;;;;;;11.30;7.75;;;;;;;19.46;71.47;101899.72;7400789;19;19926;-72
2023/09/08 07:23:42;;;;;;;11.68;8.88;;;;;;;19.53;71.85;101894.28;7396795;19;19915;-73
2023/09/08 07:26:12;;;;;;;14.25;7.97;;;;;;;19.61;71.73;101899.53;7395552;19;19918;-72
2023/09/08 07:28:40;;;;;;;12.13;7.85;;;;;;;19.69;71.82;101902.88;7392699;19;19918;-72
2023/09/08 07:31:10;;;;;;;15.05;9.50;;;;;;;19.77;72.07;101899.94;7391651;19;19968;-72
2023/09/08 07:33:38;;;;;;;13.80;8.25;;;;;;;19.84;71.84;101906.25;7392743;19;19915;-72
2023/09/08 07:36:13;;;;;;;16.52;8.38;;;;;;;19.93;71.37;101906.88;7395100;19;20648;-72
2023/09/08 07:38:42;;;;;;;16.75;8.50;;;;;;;20.03;70.75;101906.41;7396224;19;20011;-73
2023/09/08 07:41:11;;;;;;;15.75;7.63;;;;;;;20.10;70.36;101905.34;7392724;19;19942;-72
2023/09/08 07:43:59;;;;;;;;;;;;;;;20.01;71.03;101906.63;7398589;19;19925;-73
2023/09/08 07:46:48;;;;;;;15.43;7.70;;;;;;;20.23;69.66;101904.47;7395395;19;20348;-72
2023/09/08 07:49:18;;;;;;;10.60;7.28;;;;;;;20.35;69.22;101900.03;7399753;19;19914;-72
2023/09/08 07:51:53;;;;;;;12.40;8.02;;;;;;;20.43;69.26;101901.69;7398342;19;19918;-73
2023/09/08 07:54:22;;;;;;;8.30;6.70;;;;;;;20.51;69.03;101896.78;7397317;19;19976;-72
2023/09/08 07:56:51;;;;;;;8.63;7.18;;;;;;;20.59;68.97;101898.44;7398100;19;19926;-72
2023/09/08 07:59:19;;;;;;;12.27;7.13;;;;;;;20.66;69.12;101908.31;7392157;19;20371;-72
2023/09/08 08:01:48;;;;;;;11.95;6.93;;;;;;;20.74;69.15;101902.59;7394262;19;20284;-72
2023/09/08 08:04:17;;;;;;;11.15;7.30;;;;;;;20.80;68.90;101893.47;7397495;19;19926;-73
2023/09/08 08:06:47;;;;;;;9.63;7.32;;;;;;;20.88;68.68;101897.88;7396205;19;19922;-72
2023/09/08 08:09:18;;;;;;;9.65;7.07;;;;;;;20.95;68.37;101897.81;7395937;19;19946;-72
2023/09/08 08:11:47;;;;;;;8.43;6.47;;;;;;;21.01;69.32;101902.44;7390524;19;19922;-73
2023/09/08 08:14:16;;;;;;;14.60;7.43;;;;;;;21.10;68.48;101901.09;7392608;19;19926;-73
2023/09/08 08:16:45;;;;;;;10.43;6.35;;;;;;;21.18;68.21;101898.13;7396525;19;19919;-72
2023/09/08 08:19:14;;;;;;;12.02;7.38;;;;;;;21.26;68.25;101903.34;7395595;19;19914;-74
2023/09/08 08:21:43;;;;;;;8.40;6.60;;;;;;;21.34;67.95;101903.06;7395974;19;20708;-73
2023/09/08 08:24:12;;;;;;;9.32;7.07;;;;;;;21.42;67.86;101904.69;7393725;19;19943;-73
2023/09/08 08:26:43;;;;;;;9.20;6.10;;;;;;;21.50;67.72;101898.91;7397948;19;19974;-73
2023/09/08 08:29:12;;;;;;;9.48;7.28;;;;;;;21.60;67.57;101897.34;7395172;19;19926;-73
2023/09/08 08:31:41;;;;;;;8.05;6.10;;;;;;;21.68;66.94;101894.31;7396492;19;19933;-73
2023/09/08 08:34:09;;;;;;;7.13;4.55;;;;;;;21.77;66.92;101897.63;7399125;19;20396;-73
2023/09/08 08:36:39;;;;;;;8.48;5.13;;;;;;;21.85;66.31;101893.72;7397775;19;20290;-73
2023/09/08 08:39:08;;;;;;;8.32;5.68;;;;;;;21.95;66.08;101900.44;7395631;19;19946;-73
2023/09/08 08:41:39;;;;;;;9.30;5.25;;;;;;;22.07;65.83;101911.47;7398879;19;19929;-73
2023/09/08 08:44:11;;;;;;;8.07;5.22;;;;;;;22.15;66.16;101903.78;7393506;19;20328;-72
2023/09/08 08:46:41;;;;;;;7.22;5.07;;;;;;;22.25;65.61;101903.25;7397172;19;19934;-73
2023/09/08 08:49:11;;;;;;;8.13;4.93;;;;;;;22.35;65.61;101903.53;7396096;19;19925;-73
2023/09/08 08:51:42;;;;;;;8.30;6.07;;;;;;;22.48;65.30;101902.53;7397968;19;19922;-73
2023/09/08 08:54:11;;;;;;;9.55;6.00;;;;;;;22.57;65.29;101896.50;7392005;19;19918;-73
2023/09/08 08:56:39;;;;;;;8.10;5.30;;;;;;;22.70;65.33;101897.41;7390092;19;19954;-73
2023/09/08 08:59:12;;;;;;;7.22;5.70;;;;;;;22.81;65.21;101904.91;7394794;19;19922;-73
2023/09/08 09:02:01;;;;;;;6.85;5.13;;;;;;;22.94;65.28;101910.19;7392922;19;19922;-72
2023/09/08 09:04:31;;;;;;;7.03;4.80;;;;;;;23.08;63.35;101908.94;7382870;19;19925;-72
2023/09/08 09:07:01;;;;;;;7.80;4.95;;;;;;;23.22;62.88;101906.81;7392373;19;20009;-72
2023/09/08 09:09:50;;;;;;;8.38;5.07;;;;;;;23.30;62.04;101912.81;7386516;19;19922;-72
2023/09/08 09:12:21;;;;;;;7.10;5.00;;;;;;;23.37;61.52;101913.56;7396411;19;19922;-72
2023/09/08 09:14:55;;;;;;;10.18;5.10;;;;;;;23.43;60.75;101909.00;7391553;19;20455;-72
2023/09/08 09:17:24;;;;;;;4.85;4.32;;;;;;;23.53;61.37;101906.53;7396028;19;19922;-72
2023/09/08 09:19:53;;;;;;;6.63;4.72;;;;;;;23.64;60.00;101893.88;7391618;19;19983;-72
2023/09/08 09:22:23;;;;;;;7.13;4.68;;;;;;;23.73;60.25;101904.28;7387898;19;19961;-72
2023/09/08 09:24:52;;;;;;;7.18;4.80;;;;;;;23.80;59.85;101898.66;7388627;19;20377;-73
2023/09/08 09:27:20;;;;;;;7.32;4.47;;;;;;;23.92;59.12;101908.59;7382216;19;20337;-72
2023/09/08 09:29:53;;;;;;;7.25;4.00;;;;;;;24.04;59.41;101904.97;7390388;19;20278;-74
2023/09/08 09:32:29;;;;;;;6.60;4.20;;;;;;;24.13;59.76;101898.03;7388590;19;19994;-72
2023/09/08 09:35:00;;;;;;;5.97;4.53;;;;;;;24.25;58.96;101909.88;7386677;19;20253;-71
2023/09/08 09:37:31;;;;;;;9.27;4.95;;;;;;;24.32;58.83;101902.34;7392102;19;19929;-72
2023/09/08 09:39:59;;;;;;;6.40;4.20;;;;;;;24.42;58.70;101901.72;7386912;19;19915;-72
2023/09/08 09:42:30;;;;;;;11.48;5.18;;;;;;;24.50;58.08;101896.66;7387150;19;19930;-72
2023/09/08 09:45:04;;;;;;;7.15;4.40;;;;;;;24.60;57.40;101907.03;7389747;19;19923;-72
2023/09/08 09:47:33;;;;;;;6.40;4.30;;;;;;;24.71;58.55;101906.19;7388838;19;21304;-72
2023/09/08 09:50:02;;;;;;;8.52;4.40;;;;;;;24.82;57.68;101902.53;7384774;19;19943;-72
2023/09/08 09:52:51;;;;;;;7.78;5.05;;;;;;;24.94;57.60;101900.56;7383953;19;19941;-73
2023/09/08 09:55:20;;;;;;;5.72;4.93;;;;;;;25.03;57.53;101899.09;7391582;19;19919;-72
2023/09/08 09:58:10;;;;;;;7.07;4.93;;;;;;;25.11;56.83;101897.88;7392564;19;19922;-72
2023/09/08 10:00:47;;;;;;;7.65;4.93;;;;;;;25.20;57.25;101891.69;7388751;19;19939;-72
2023/09/08 10:03:17;;;;;;;7.30;4.43;;;;;;;25.33;57.27;101895.22;7395606;19;20360;-72
2023/09/08 10:05:49;;;;;;;5.93;3.85;;;;;;;25.46;57.13;101887.44;7391669;19;20272;-72
2023/09/08 10:08:18;;;;;;;7.35;4.63;;;;;;;25.59;56.04;101886.28;7381326;19;20268;-73
2023/09/08 10:10:50;;;;;;;4.22;3.70;;;;;;;25.73;56.27;101877.41;7384619;19;19936;-72
2023/09/08 10:13:26;;;;;;;4.15;3.53;;;;;;;25.85;54.50;101877.28;7393004;19;19922;-72
2023/09/08 10:16:01;;;;;;;8.13;4.22;;;;;;;25.93;52.65;101878.81;7390469;19;19986;-72
2023/09/08 10:18:33;;;;;;;4.97;4.28;;;;;;;26.00;53.41;101877.53;7388248;19;19927;-73
2023/09/08 10:21:06;;;;;;;6.10;4.15;;;;;;;26.09;51.92;101869.63;7394901;19;19943;-73
2023/09/08 10:23:38;;;;;;;4.85;4.05;;;;;;;26.21;52.81;101864.84;7398745;19;19955;-73
2023/09/08 10:26:12;;;;;;;6.82;4.43;;;;;;;26.34;52.69;101856.19;7398471;19;19942;-73
2023/09/08 10:28:42;;;;;;;6.13;3.88;;;;;;;26.45;52.21;101866.25;7396001;19;20276;-74
2023/09/08 10:31:14;;;;;;;6.63;3.97;;;;;;;26.54;50.95;101855.56;7396123;19;19982;-72
2023/09/08 10:33:44;;;;;;;4.47;3.47;;;;;;;26.66;51.52;101856.28;7397801;19;19918;-73
2023/09/08 10:36:14;;;;;;;5.93;3.78;;;;;;;26.78;51.89;101861.66;7394175;19;19970;-73
2023/09/08 10:38:47;;;;;;;5.30;3.95;;;;;;;26.88;51.46;101859.03;7396373;19;20355;-73
2023/09/08 10:41:32;;;;;;;6.75;4.00;;;;;;;26.95;48.98;101854.94;7397312;19;19926;-73
2023/09/08 10:44:04;;;;;;;6.85;4.10;;;;;;;27.09;50.10;101858.13;7396442;19;19946;-73
2023/09/08 10:46:36;;;;;;;6.28;4.57;;;;;;;27.21;50.52;101853.25;7398498;19;19922;-73
2023/09/08 10:49:06;;;;;;;5.25;3.75;;;;;;;27.34;50.13;101854.72;7395016;19;19923;-73
2023/09/08 10:51:37;;;;;;;6.38;4.10;;;;;;;27.44;48.79;101865.88;7398802;19;19939;-73
2023/09/08 10:54:06;;;;;;;4.32;3.50;;;;;;;27.53;49.60;101861.53;7397550;19;19918;-72
2023/09/08 10:56:51;;;;;;;4.85;3.85;;;;;;;27.62;49.33;101862.69;7396170;19;20297;-72
2023/09/08 10:59:20;;;;;;;7.35;4.22;;;;;;;27.77;48.68;101859.22;7393273;19;19919;-73
2023/09/08 11:01:53;;;;;;;7.07;3.83;;;;;;;27.90;47.30;101864.28;7398802;19;20317;-72
2023/09/08 11:04:44;;;;;;;6.15;4.00;;;;;;;28.05;47.73;101864.34;7394731;19;19921;-72
2023/09/08 11:07:12;;;;;;;6.55;3.50;;;;;;;28.19;48.29;101870.25;7396968;19;19923;-73
2023/09/08 11:09:43;;;;;;;5.03;3.58;;;;;;;28.31;45.93;101859.78;7391217;19;19922;-73
2023/09/08 11:12:12;;;;;;;6.28;3.65;;;;;;;28.41;45.67;101857.06;7392765;19;19914;-73
2023/09/08 11:14:41;;;;;;;5.82;3.88;;;;;;;28.53;46.13;101857.66;7396985;19;19942;-73
2023/09/08 11:17:39;;;;;;;5.32;3.50;;;;;;;28.62;45.51;101849.63;7394630;19;19961;-73
2023/09/08 11:20:12;;;;;;;4.75;3.83;;;;;;;28.76;45.53;101857.19;7393764;19;19938;-73
2023/09/08 11:22:43;;;;;;;6.80;3.92;;;;;;;28.86;44.89;101848.06;7399230;19;19933;-73
2023/09/08 11:25:14;;;;;;;6.00;3.85;;;;;;;28.98;45.63;101850.56;7398997;19;19919;-72
2023/09/08 11:27:44;;;;;;;6.55;4.05;;;;;;;29.06;44.81;101847.22;7398291;19;19961;-73
2023/09/08 11:30:15;;;;;;;4.53;3.67;;;;;;;29.18;43.39;101842.25;7388635;19;19922;-73
2023/09/08 11:32:46;;;;;;;8.18;4.20;;;;;;;29.27;42.79;101846.13;7392165;19;19950;-73
2023/09/08 11:35:16;;;;;;;7.57;3.90;;;;;;;29.37;43.91;101839.78;7399439;19;19918;-73
2023/09/08 11:37:46;;;;;;;6.15;3.80;;;;;;;29.50;43.91;101841.97;7396925;19;20106;-73
2023/09/08 11:40:16;;;;;;;6.18;3.63;;;;;;;29.58;42.96;101836.69;7392748;19;19943;-73
2023/09/08 11:42:46;;;;;;;5.93;3.63;;;;;;;29.62;42.41;101831.41;7398922;19;20467;-73
2023/09/08 11:45:17;;;;;;;7.68;3.80;;;;;;;29.73;41.89;101830.25;7398081;19;19918;-73